Latest Coastal Weather Observations for King Island Airport

IDV60701

Issued at 5:52 am EDT Tuesday 24 October 2017 (issued every 10 minutes, with the page automatically refreshed every 10 minutes)

About coastal observations | Map of coastal stations | Coastal observations for VIC | Marine services | Other Formats
Station Details ID: 098017 Name: KING ISLAND AIRPORT Lat: -39.88 Lon: 143.88 Height: 37.0 m
Data from the previous 72 hours. | See also: Recent months at King Island Airport
Date/Time
EDT
Temp
°C
Wind Pressure Rain since
9am
mm
Weather Cloud Vis
km
Sea
Height
m
Swell
Dir  Spd
kts
Gust
kts
hPa Trend Height
m
Period
s
Dir
24/05:30am 12.1 WSW 7 10 1015.7 - 0.0 - Partly cloudy 10 - - - -
24/05:25am 12.1 WSW 7 8 1015.8 - 0.0 - Partly cloudy 10 - - - -
24/05:20am 12.1 WSW 7 9 1015.9 - 0.0 - Partly cloudy 10 - - - -
24/05:00am 12.2 WSW 8 10 1016.1 - 0.0 - Partly cloudy 10 - - - -
24/04:30am 12.5 WSW 7 9 1016.2 - 0.0 - Partly cloudy 10 - - - -
24/04:24am 12.5 W 8 11 1016.1 - 0.0 - Partly cloudy 10 - - - -
24/04:00am 12.5 W 8 10 1016.3 - 0.0 - Partly cloudy 10 - - - -
24/03:47am 12.6 W 8 12 1016.3 - 0.0 - Partly cloudy 10 - - - -
24/03:30am 12.5 W 8 11 1016.2 - 0.0 - Partly cloudy 10 - - - -
24/03:09am 12.4 W 7 9 1016.3 - 0.0 - Partly cloudy 10 - - - -
24/03:05am 12.3 W 7 8 1016.3 - 0.0 - Partly cloudy 10 - - - -
24/03:00am 12.2 W 6 8 1016.2 - 0.0 - Cloudy 10 - - - -
24/02:30am 12.9 WSW 6 9 1016.3 - 0.0 - Partly cloudy 10 - - - -
24/02:29am 12.9 WSW 6 8 1016.3 - 0.0 - Partly cloudy 10 - - - -
24/02:00am 12.9 W 9 12 1016.5 - 0.0 - Cloudy 10 - - - -
24/01:42am 12.9 WSW 7 9 1016.5 - 0.0 - Partly cloudy 10 - - - -
24/01:30am 12.8 WSW 9 11 1016.8 - 0.0 - Partly cloudy 10 - - - -
24/01:26am 12.8 WSW 9 11 1016.9 - 0.0 - Partly cloudy 10 - - - -
24/01:00am 12.9 WSW 9 13 1017.1 - 0.0 - Cloudy 10 - - - -
24/12:47am 12.9 W 7 9 1017.2 - 0.0 - Partly cloudy 10 - - - -
24/12:30am 12.9 W 9 12 1017.3 - 0.0 - Partly cloudy 10 - - - -
24/12:23am 12.8 WSW 8 12 1017.2 - 0.0 - Partly cloudy 10 - - - -
24/12:08am 12.8 WSW 9 11 1017.3 - 0.0 - Partly cloudy 10 - - - -
24/12:00am 12.9 W 9 12 1017.3 - 0.0 - Cloudy 10 - - - -
 
Date/Time
EDT
Temp
°C
Wind Pressure Rain since
9am
mm
Weather Cloud Vis
km
Sea
Height
m
Swell
Dir  Spd
kts
Gust
kts
hPa Trend Height
m
Period
s
Dir
23/11:49pm 12.8 WSW 9 13 1017.3 - 0.0 - Partly cloudy 10 - - - -
23/11:40pm 12.8 W 9 11 1017.4 - 0.0 - Partly cloudy 10 - - - -
23/11:30pm 12.8 WSW 9 13 1017.4 - 0.0 - Partly cloudy 10 - - - -
23/11:25pm 12.9 WSW 9 11 1017.3 - 0.0 - Partly cloudy 10 - - - -
23/11:09pm 12.9 W 8 11 1017.2 - 0.0 - Partly cloudy 10 - - - -
23/11:03pm 12.9 W 8 11 1017.3 - 0.0 - Partly cloudy 10 - - - -
23/11:00pm 12.9 W 9 12 1017.5 - 0.0 - Partly cloudy 10 - - - -
23/10:36pm 12.8 W 9 14 1017.6 - 0.0 - Partly cloudy 10 - - - -
23/10:30pm 12.8 W 9 12 1017.5 - 0.0 - Partly cloudy 10 - - - -
23/10:15pm 13.0 W 10 12 1017.6 - 0.0 - Partly cloudy 10 - - - -
23/10:06pm 13.0 W 9 12 1017.5 - 0.0 - Partly cloudy 10 - - - -
23/10:00pm 12.9 W 9 11 1017.4 - 0.0 - Partly cloudy 10 - - - -
23/09:50pm 12.9 W 8 11 1017.3 - 0.0 - Partly cloudy 10 - - - -
23/09:47pm 12.9 W 8 11 1017.3 - 0.0 - Partly cloudy 10 - - - -
23/09:44pm 12.9 W 8 11 1017.3 - 0.0 - Partly cloudy 10 - - - -
23/09:30pm 13.0 W 8 12 1017.2 - 0.0 - Partly cloudy 10 - - - -
23/09:20pm 13.0 W 9 14 1017.3 - 0.0 - Partly cloudy 10 - - - -
23/09:00pm 13.0 W 10 14 1017.3 - 0.0 - Cloudy 10 - - - -
23/08:30pm 13.2 W 10 14 1017.2 - 0.0 - Partly cloudy 10 - - - -
23/08:18pm 13.1 W 12 16 1017.3 - 0.0 - Partly cloudy 10 - - - -
23/08:00pm 13.2 W 11 15 1017.4 - 0.0 - Partly cloudy 10 - - - -
23/07:30pm 13.1 W 11 14 1017.1 - 0.0 - Partly cloudy 10 - - - -
23/07:07pm 13.3 W 11 15 1017.1 - 0.0 - Partly cloudy 10 - - - -
23/07:00pm 13.4 W 11 15 1017.0 - 0.0 - Partly cloudy 10 - - - -
23/06:30pm 13.5 W 11 15 1017.1 - 0.0 - Partly cloudy 10 - - - -
23/06:00pm 14.1 W 11 15 1016.9 - 0.0 - Mostly cloudy 10 - - - -
23/05:31pm 13.8 W 11 15 1016.8 - 0.0 - Partly cloudy 10 - - - -
23/05:30pm 13.9 W 11 15 1016.8 - 0.0 - Partly cloudy 10 - - - -
23/05:00pm 13.9 W 10 14 1017.0 - 0.0 - Partly cloudy 10 - - - -
23/04:41pm 14.2 W 12 17 1016.9 - 0.0 - Partly cloudy 10 - - - -
23/04:30pm 14.4 W 13 16 1017.0 - 0.0 - Partly cloudy 10 - - - -
23/04:00pm 14.1 W 13 16 1017.2 - 0.0 - Partly cloudy 10 - - - -
23/03:40pm 14.0 W 11 16 1017.2 - 0.0 - Partly cloudy 10 - - - -
23/03:30pm 14.2 W 13 17 1017.2 - 0.0 - Partly cloudy 10 - - - -
23/03:16pm 15.5 W 11 17 1017.3 - 0.0 - Partly cloudy 10 - - - -
23/03:12pm 15.1 W 10 14 1017.3 - 0.0 - Partly cloudy 10 - - - -
23/03:00pm 14.8 W 11 14 1017.4 - 0.0 - Cloudy 10 - - - -
23/02:49pm 14.4 W 11 14 1017.5 - 0.0 - Partly cloudy 10 - - - -
23/02:30pm 14.8 WSW 11 16 1017.5 - 0.0 - Partly cloudy 10 - - - -
23/02:00pm 14.5 W 13 17 1017.8 - 0.0 - Partly cloudy 10 - - - -
23/01:30pm 15.2 W 13 17 1017.9 - 0.0 - Partly cloudy 10 - - - -
23/01:22pm 14.4 W 12 17 1017.9 - 0.0 - Partly cloudy 10 - - - -
23/01:00pm 14.8 WNW 12 15 1017.9 - 0.0 - Partly cloudy 10 - - - -
23/12:30pm 14.8 WNW 12 16 1017.8 - 0.0 - Partly cloudy 10 - - - -
23/12:03pm 14.7 WSW 10 14 1018.1 - 0.0 - Partly cloudy 10 - - - -
23/12:00pm 14.7 WSW 10 14 1018.1 - 0.0 - Cloudy 10 - - - -
23/11:30am 14.3 W 10 14 1018.4 - 0.0 - Partly cloudy 10 - - - -
23/11:00am 13.5 WSW 12 17 1018.6 - 0.0 - Partly cloudy 10 - - - -
23/10:30am 13.4 WNW 8 10 1018.5 - 0.0 - Partly cloudy 10 - - - -
23/10:00am 13.1 W 11 15 1018.4 - 0.0 - Partly cloudy 10 - - - -
23/09:30am 12.9 SW 9 12 1018.5 - 0.0 - Partly cloudy 10 - - - -
23/09:00am 12.8 WSW 7 9 1018.4 - 0.6 - Cloudy 10 - - - -
23/08:30am 13.0 SW 6 8 1017.8 - 0.6 - Partly cloudy 10 - - - -
23/08:00am 13.0 SW 5 7 1017.5 - 0.6 - - 10 - - - -
23/07:30am 11.8 SW 5 6 1017.5 - 0.6 - Partly cloudy 10 - - - -
23/07:00am 11.3 SW 7 8 1017.7 - 0.6 - Partly cloudy 10 - - - -
23/06:30am 11.0 SW 8 10 1017.7 - 0.6 - Partly cloudy 10 - - - -
23/06:26am 11.0 SSW 8 10 1017.8 - 0.6 - Partly cloudy 10 - - - -
23/06:09am 10.8 SSW 10 14 1017.5 - 0.6 - Partly cloudy 10 - - - -
23/06:00am 11.2 SW 8 10 1017.5 - 0.6 Recent precip. Cloudy 10 - - - -
23/05:30am 11.6 SW 8 14 1017.5 - 0.4 - Cloudy 10 - - - -
23/05:06am 11.2 SW 11 15 1017.6 - 0.4 - Cloudy 10 - - - -
23/05:00am 11.2 SW 8 15 1017.7 - 0.4 - Partly cloudy 10 - - - -
23/04:54am 11.2 SW 7 9 1017.6 - 0.4 - Partly cloudy 10 - - - -
23/04:30am 11.0 SW 11 15 1017.5 - 0.4 - Partly cloudy 10 - - - -
23/04:00am 11.3 WSW 8 12 1017.6 - 0.4 - Partly cloudy 10 - - - -
23/03:30am 11.1 SW 9 11 1017.6 - 0.4 - Partly cloudy 10 - - - -
23/03:00am 11.4 SW 8 11 1017.7 - 0.4 - Cloudy 10 - - - -
23/02:45am 11.2 WSW 11 15 1017.8 - 0.4 - Partly cloudy 10 - - - -
23/02:31am 11.2 WSW 11 16 1017.9 - 0.4 - Partly cloudy 9 - - - -
23/02:30am 11.3 WSW 10 15 1017.9 - 0.4 - Partly cloudy 10 - - - -
23/02:13am 10.9 SW 7 8 1018.0 - 0.4 - Partly cloudy 10 - - - -
23/02:00am 11.2 SW 8 10 1018.1 - 0.4 - Partly cloudy 10 - - - -
23/01:58am 11.2 SW 8 10 1018.1 - 0.4 - Partly cloudy 10 - - - -
23/01:30am 11.0 SW 7 9 1018.3 - 0.4 - Partly cloudy 10 - - - -
23/01:21am 11.2 SW 7 9 1018.3 - 0.4 - Partly cloudy 10 - - - -
23/01:01am 11.5 SW 9 13 1018.7 - 0.4 - Partly cloudy 5 - - - -
23/01:00am 11.5 SW 10 13 1018.7 - 0.4 - Partly cloudy 6 - - - -
23/12:30am 11.6 SW 6 8 1018.7 - 0.4 - Partly cloudy 10 - - - -
23/12:00am 11.8 SW 10 13 1018.7 - 0.4 - Cloudy 10 - - - -
 
Date/Time
EDT
Temp
°C
Wind Pressure Rain since
9am
mm
Weather Cloud Vis
km
Sea
Height
m
Swell
Dir  Spd
kts
Gust
kts
hPa Trend Height
m
Period
s
Dir
22/11:30pm 11.3 SW 8 10 1018.7 - 0.4 - Partly cloudy 10 - - - -
22/11:00pm 11.8 SW 9 12 1018.6 - 0.4 - Partly cloudy 10 - - - -
22/10:30pm 11.7 SSW 12 15 1018.7 - 0.4 - Cloudy 10 - - - -
22/10:00pm 11.6 SW 9 12 1019.0 - 0.4 - Cloudy 10 - - - -
22/09:56pm 11.7 SSW 9 12 1019.0 - 0.4 - Cloudy 10 - - - -
22/09:30pm 11.5 SW 9 12 1019.1 - 0.4 - Partly cloudy 10 - - - -
22/09:00pm 11.5 SSW 12 17 1019.1 - 0.4 Recent precip. Cloudy 10 - - - -
22/08:43pm 11.6 SW 11 15 1018.9 - 0.4 - Partly cloudy 10 - - - -
22/08:30pm 11.7 SW 12 17 1018.8 - 0.4 - Partly cloudy 5 - - - -
22/08:29pm 11.7 SW 12 16 1018.8 - 0.4 - Partly cloudy 5 - - - -
22/08:28pm 11.7 SW 12 16 1018.7 - 0.4 - Partly cloudy 5 - - - -
22/08:24pm 11.8 SW 11 14 1018.7 - 0.4 - Partly cloudy 9 - - - -
22/08:00pm 11.8 SW 10 13 1018.5 - 0.2 - Partly cloudy 10 - - - -
22/07:30pm 12.4 SW 9 12 1018.2 - 0.2 - Partly cloudy 10 - - - -
22/07:00pm 12.5 SW 11 16 1017.9 - 0.2 - Cloudy 10 - - - -
22/06:30pm 12.9 SW 12 17 1017.6 - 0.2 - Cloudy 10 - - - -
22/06:19pm 13.2 SW 15 19 1017.5 - 0.2 - Cloudy 10 - - - -
22/06:12pm 13.4 SW 14 19 1017.4 - 0.2 - Cloudy 10 - - - -
22/06:00pm 13.4 SW 13 18 1017.4 - 0.2 - Cloudy 10 - - - -
22/05:30pm 12.4 SW 13 18 1017.4 - 0.2 - Cloudy 10 - - - -
22/05:00pm 13.4 SW 14 19 1017.5 - 0.2 - Partly cloudy 10 - - - -
22/04:36pm 12.7 SW 14 19 1017.6 - 0.2 - Partly cloudy 10 - - - -
22/04:30pm 12.5 WSW 14 19 1017.6 - 0.2 - Partly cloudy 7 - - - -
22/04:21pm 12.8 SW 13 18 1017.6 - 0.2 - Partly cloudy 5 - - - -
22/04:00pm 13.4 SW 15 20 1017.6 - 0.2 - Partly cloudy 10 - - - -
22/03:51pm 12.8 SW 15 19 1017.5 - 0.2 - Partly cloudy 10 - - - -
22/03:30pm 12.9 SW 15 21 1017.7 - 0.2 - Partly cloudy 4 - - - -
22/03:26pm 12.8 SW 16 21 1017.7 - 0.2 - Partly cloudy 4 - - - -
22/03:24pm 13.0 SW 16 21 1017.8 - 0.2 - Partly cloudy 5 - - - -
22/03:01pm 13.3 SW 17 22 1017.7 - 0.2 - Partly cloudy 10 - - - -
22/03:00pm 13.2 SW 17 22 1017.7 - 0.2 - Cloudy 10 - - - -
22/02:30pm 13.5 SW 15 20 1017.7 - 0.2 - Partly cloudy 10 - - - -
22/02:28pm 13.9 SW 14 18 1017.7 - 0.2 - Partly cloudy 9 - - - -
22/02:00pm 13.5 SW 14 17 1017.8 - 0.2 - Cloudy 10 - - - -
22/01:30pm 14.1 SW 16 20 1017.6 - 0.2 - Cloudy 10 - - - -
22/01:00pm 14.4 SW 15 18 1017.9 - 0.2 - Partly cloudy 10 - - - -
22/12:30pm 14.5 SW 16 22 1017.9 - 0.2 - Partly cloudy 10 - - - -
22/12:16pm 13.9 SW 16 20 1018.0 - 0.2 - Partly cloudy 10 - - - -
22/12:00pm 14.1 SW 15 20 1018.0 - 0.2 - Cloudy 10 - - - -
22/11:30am 13.7 SSW 17 21 1018.0 - 0.2 - Partly cloudy 10 - - - -
22/11:00am 13.5 SW 18 24 1017.5 - 0.2 - Partly cloudy 10 - - - -
22/10:43am 13.4 SSW 18 22 1017.7 - 0.0 - Partly cloudy 10 - - - -
22/10:30am 13.8 SSW 17 23 1018.0 - 0.0 - Partly cloudy 10 - - - -
22/10:25am 13.3 SSW 17 23 1018.0 - 0.0 - Partly cloudy 10 - - - -
22/10:10am 13.3 SW 16 22 1018.2 - 0.0 - Partly cloudy 10 - - - -
22/10:03am 12.8 SW 13 18 1018.2 - 0.0 - Partly cloudy 10 - - - -
22/10:00am 12.7 SW 13 16 1018.1 - 0.0 - Partly cloudy 10 - - - -
22/09:30am 12.4 SSW 14 20 1018.0 - 0.0 - Partly cloudy 10 - - - -
22/09:09am 12.5 SSW 16 20 1018.0 - 0.0 - Partly cloudy 10 - - - -
22/09:04am 12.2 SSW 14 19 1018.0 - 0.0 - Partly cloudy 10 - - - -
22/09:00am 12.0 SSW 13 18 1018.0 - 2.4 Drizzle Cloudy 10 - - - -
22/08:32am 11.7 SSW 14 17 1017.7 - 2.4 - Partly cloudy 10 - - - -
22/08:30am 11.7 SSW 13 17 1017.8 - 2.4 - Partly cloudy 10 - - - -
22/08:17am 11.6 SSW 16 21 1017.7 - 2.4 - Partly cloudy 4 - - - -
22/08:15am 11.6 SSW 16 21 1017.7 - 2.4 - Partly cloudy 5 - - - -
22/08:09am 11.6 SW 14 18 1017.6 - 2.4 - Partly cloudy 10 - - - -
22/08:00am 11.6 SW 11 16 1017.5 - 2.4 - Partly cloudy 6 - - - -
22/07:47am 11.4 SW 14 19 1017.5 - 2.0 - Partly cloudy 5 - - - -
22/07:43am 11.7 SW 13 19 1017.4 - 2.0 - Partly cloudy 10 - - - -
22/07:37am 11.6 SW 14 17 1017.3 - 2.0 - Partly cloudy 10 - - - -
22/07:30am 11.5 SW 14 17 1017.3 - 2.0 - Partly cloudy 10 - - - -
22/07:00am 11.5 SW 13 17 1017.0 - 2.0 - Partly cloudy 10 - - - -
22/06:30am 11.5 SW 12 17 1016.8 - 2.0 - Partly cloudy 10 - - - -
22/06:00am 11.1 SW 12 20 1016.8 - 1.8 - Cloudy 10 - - - -
22/05:30am 11.4 SW 12 16 1016.8 - 1.8 - Partly cloudy 10 - - - -
22/05:04am 11.2 WSW 13 19 1016.9 - 1.8 - Partly cloudy 10 - - - -
22/05:00am 11.1 WSW 15 22 1016.9 - 1.8 - Partly cloudy 9 - - - -
22/04:52am 11.1 WSW 16 22 1016.8 - 1.8 - Partly cloudy 5 - - - -
22/04:30am 11.6 WSW 12 17 1017.0 - 1.8 - Partly cloudy 10 - - - -
22/04:03am 11.5 WSW 11 18 1017.2 - 1.8 - Partly cloudy 10 - - - -
22/04:00am 11.4 WSW 11 15 1017.1 - 1.8 - Partly cloudy 10 - - - -
22/03:30am 11.3 WSW 13 19 1017.6 - 1.8 - Partly cloudy 10 - - - -
22/03:24am 11.4 WSW 13 19 1017.7 - 1.8 - Partly cloudy 10 - - - -
22/03:00am 11.4 WSW 14 19 1017.8 - 1.8 Recent precip. Cloudy 10 - - - -
22/02:40am 11.1 WSW 12 17 1017.9 - 1.8 - Partly cloudy 10 - - - -
22/02:37am 11.1 WSW 13 18 1018.0 - 1.8 - Partly cloudy 10 - - - -
22/02:30am 11.1 WSW 13 18 1018.0 - 1.6 - Partly cloudy 10 - - - -
22/02:25am 11.0 WSW 12 16 1018.1 - 1.6 - Partly cloudy 10 - - - -
22/02:00am 11.0 SW 11 17 1018.5 - 1.6 - Partly cloudy 10 - - - -
22/01:59am 11.1 SW 12 17 1018.5 - 1.6 - Partly cloudy 10 - - - -
22/01:49am 10.7 WSW 13 18 1018.6 - 1.6 - Partly cloudy 10 - - - -
22/01:30am 11.0 WSW 14 18 1018.7 - 1.6 - Partly cloudy 5 - - - -
22/01:00am 10.8 SW 11 14 1018.9 - 1.6 - Partly cloudy 10 - - - -
22/12:57am 10.8 SW 11 16 1018.9 - 1.6 - Partly cloudy 10 - - - -
22/12:37am 11.1 SW 11 16 1019.3 - 1.6 - Partly cloudy 10 - - - -
22/12:30am 11.0 WSW 13 19 1019.4 - 1.6 - Partly cloudy 10 - - - -
22/12:09am 11.1 WSW 12 18 1019.3 - 1.6 - Partly cloudy 10 - - - -
22/12:00am 10.9 WSW 12 16 1019.5 - 1.6 Drizzle Cloudy 10 - - - -
 
Date/Time
EDT
Temp
°C
Wind Pressure Rain since
9am
mm
Weather Cloud Vis
km
Sea
Height
m
Swell
Dir  Spd
kts
Gust
kts
hPa Trend Height
m
Period
s
Dir
21/11:46pm 10.9 WSW 12 16 1019.6 - 1.4 - Partly cloudy 10 - - - -
21/11:33pm 11.0 WSW 13 21 1019.8 - 1.4 - Partly cloudy 5 - - - -
21/11:30pm 11.1 WSW 13 18 1019.8 - 1.4 - Partly cloudy 6 - - - -
21/11:00pm 10.9 WSW 14 19 1019.9 - 1.4 - Partly cloudy 10 - - - -
21/10:41pm 10.8 WSW 12 16 1020.0 - 1.4 - Partly cloudy 10 - - - -
21/10:30pm 10.7 WSW 14 20 1020.2 - 1.4 - Partly cloudy 5 - - - -
21/10:26pm 11.0 WSW 12 18 1020.3 - 1.4 - Partly cloudy 5 - - - -
21/10:00pm 10.8 WSW 13 19 1020.4 - 1.2 - Partly cloudy 10 - - - -
21/09:30pm 10.9 SW 13 19 1020.6 - 1.0 - Partly cloudy 6 - - - -
21/09:04pm 10.8 WSW 15 20 1020.8 - 0.6 - Partly cloudy 10 - - - -
21/09:00pm 10.8 WSW 15 20 1020.8 - 0.6 Rain Cloudy 10 - - - -
21/08:58pm 10.7 SW 14 20 1020.8 - 0.6 - Partly cloudy 10 - - - -
21/08:30pm 11.1 WSW 14 19 1020.5 - 0.4 - Partly cloudy 5 - - - -
21/08:28pm 11.3 WSW 14 19 1020.5 - 0.4 - Partly cloudy 5 - - - -
21/08:19pm 11.0 WSW 13 18 1020.4 - 0.2 - Partly cloudy 10 - - - -
21/08:00pm 11.3 WSW 14 18 1020.5 - 0.0 - Partly cloudy 5 - - - -
21/07:53pm 11.5 WSW 13 19 1020.5 - 0.0 - Partly cloudy 10 - - - -
21/07:30pm 11.3 WSW 13 19 1020.6 - 0.0 - Partly cloudy 10 - - - -
21/07:14pm 11.3 WSW 15 25 1020.6 - 0.0 - Partly cloudy 10 - - - -
21/07:00pm 11.4 SW 16 24 1020.6 - 0.0 - Partly cloudy 10 - - - -
21/06:30pm 12.1 WSW 14 20 1020.7 - 0.0 - Partly cloudy 10 - - - -
21/06:00pm 12.8 WSW 17 23 1020.7 - 0.0 - Mostly cloudy 10 - - - -
21/05:30pm 13.2 WSW 17 21 1020.9 - 0.0 - Partly cloudy 10 - - - -
21/05:00pm 13.2 WSW 18 25 1021.1 - 0.0 - Partly cloudy 10 - - - -
21/04:30pm 12.7 WSW 17 24 1021.3 - 0.0 - Partly cloudy 10 - - - -
21/04:18pm 12.4 WSW 15 26 1021.5 - 0.0 - Partly cloudy 10 - - - -
21/04:00pm 12.5 WSW 16 22 1021.6 - 0.0 - Partly cloudy 10 - - - -
21/03:30pm 12.5 WSW 18 25 1022.0 - 0.0 - Partly cloudy 10 - - - -
21/03:05pm 13.5 WSW 17 23 1022.3 - 0.0 - Partly cloudy 10 - - - -
21/03:00pm 13.1 WSW 16 23 1022.4 - 0.0 - Cloudy 10 - - - -
21/02:54pm 12.7 WSW 16 21 1022.4 - 0.0 - Partly cloudy 10 - - - -
21/02:47pm 13.1 WSW 15 21 1022.6 - 0.0 - Partly cloudy 10 - - - -
21/02:38pm 12.6 WSW 15 25 1022.7 - 0.0 - Partly cloudy 6 - - - -
21/02:30pm 11.6 WSW 18 25 1022.9 - 0.0 - Partly cloudy 5 - - - -
21/02:00pm 13.8 W 15 20 1023.0 - 0.0 - Partly cloudy 10 - - - -
21/01:30pm 13.4 WSW 15 20 1023.2 - 0.0 - Partly cloudy 10 - - - -
21/01:00pm 13.4 WSW 14 19 1023.4 - 0.0 - Partly cloudy 10 - - - -
21/12:30pm 12.9 WSW 16 21 1023.8 - 0.0 - Partly cloudy 10 - - - -
21/12:00pm 13.2 WSW 15 19 1024.1 - 0.0 - Mostly cloudy 10 - - - -
21/11:30am 12.4 W 12 17 1024.5 - 0.0 - Cloudy 10 - - - -
21/11:00am 12.7 WSW 15 20 1024.7 - 0.0 - Partly cloudy 10 - - - -
21/10:30am 11.9 SW 17 22 1025.0 - 0.0 - Partly cloudy 10 - - - -
21/10:00am 12.6 WSW 12 18 1024.9 - 0.0 - Partly cloudy 10 - - - -
21/09:30am 10.6 WSW 17 23 1025.2 - 0.0 - Partly cloudy 10 - - - -
21/09:00am 11.2 WSW 13 17 1025.1 - 0.6 Rain Cloudy 10 - - - -
21/08:45am 10.5 SW 11 18 1025.1 - 0.4 - Partly cloudy 10 - - - -
21/08:30am 10.0 WSW 15 22 1025.2 - 0.4 - Partly cloudy 4 - - - -
21/08:26am 10.1 WSW 14 22 1025.2 - 0.4 - Partly cloudy 5 - - - -
21/08:00am 11.1 WSW 14 19 1025.0 - 0.2 - Partly cloudy 10 - - - -
21/07:32am 9.9 WSW 17 27 1025.2 - 0.2 - Partly cloudy 10 - - - -
21/07:30am 9.8 WSW 18 27 1025.2 - 0.2 - Partly cloudy 10 - - - -
21/07:23am 10.1 WSW 19 27 1025.1 - 0.2 - Partly cloudy 10 - - - -
21/07:00am 10.7 WSW 12 17 1025.0 - 0.2 - Cloudy 10 - - - -
21/06:30am 10.2 WSW 10 14 1025.1 - 0.2 - Partly cloudy 10 - - - -
21/06:00am 10.1 SW 13 19 1025.2 - 0.0 Drizzle Cloudy 10 - - - -

Other Formats:

Comma delimited format used in spreadsheet applications
http://www.bom.gov.au/fwo/IDV60701/IDV60701.94850.axf

JavaScript Object Notation format (JSON) in row-major order
http://www.bom.gov.au/fwo/IDV60701/IDV60701.94850.json